首页
METAR-TAF:

METAR-TAF

机场 :

沃特福德, 爱尔兰

纬度: 52-11-14N, 经度: 7-05-13W, 海拔: 36米

当前天气观测

该预报发布于38分钟前的08:30 UTC
风速12节,风向西转西南,在西南西转西北之间变化
温度 10°C
湿度 87%
气压 998 hPa
能见度10公里或以上
散云层高于1800英尺, 积雨云.
散云层高于3200英尺
阵雨

METAR: EIWF 170830Z 25012KT 220V300 9999 SHRA SCT018CB SCT032 10/08 Q0998 R21/1/////

时间: 10:08 (09:08 UTC)

预报

该预报发布于4小时和8分钟前的05:00 UTC
预报有效从17日的 06点(UTC)到 17日的 15点(UTC)
风速18节,风向南转西南
能见度10公里或以上
散云层高于2500英尺
短暂存在
从 17日的 06点(UTC)到 17日的 15点(UTC)
风速18节,风向南转西南,有时为32节阵风
短暂存在
从 17日的 06点(UTC)到 17日的 09点(UTC)
散云层高于2000英尺, 积雨云.
小阵雨
几率 30% :
短暂存在
从 17日的 06点(UTC)到 17日的 09点(UTC)
能見度: 4000
阵雨
短暂存在
从 17日的 09点(UTC)到 17日的 15点(UTC)
散云层高于2000英尺, 积雨云.
阵雨
几率 30% :
短暂存在
从 17日的 09点(UTC)到 17日的 15点(UTC)
能見度: 4000
多云层高于2000英尺, 积雨云.

TAF: EIWF 170500Z 1706/1715 20018KT 9999 SCT025 TEMPO 1706/1715 21018G32KT TEMPO 1706/1709 -SHRA SCT020CB PROB30 TEMPO 1706/1709 4000 SHRA TEMPO 1709/1715 SHRA SCT020CB PROB30 TEMPO 1709/1715 4000 BKN020CB

超过4000个机场的气象观测和天气预报(METAR&TAF报告)。

可查询的气象台以黄色和红色小点在地图上表示。

将鼠标移到小点上方,可查看气象台名称。

然后点击查看天气观测和预报。

如需切换地图:点击带黑十字的绿色按钮放大地图;点击带横线的绿色按钮缩小地图;或者点击绿色箭头查看邻近地区的地图。


METAR-TAF: